sensor_id;sensor_type;location;lat;lon;timestamp;temperature;humidity
38973;DHT22;25333;50.762;4.470;2023-06-22T00:01:11;19.80;99.90
38973;DHT22;25333;50.762;4.470;2023-06-22T00:03:37;19.80;99.90
38973;DHT22;25333;50.762;4.470;2023-06-22T00:06:02;19.80;99.90
38973;DHT22;25333;50.762;4.470;2023-06-22T00:08:28;19.90;99.90
38973;DHT22;25333;50.762;4.470;2023-06-22T00:10:53;19.90;99.90
38973;DHT22;25333;50.762;4.470;2023-06-22T00:13:19;19.80;99.90
38973;DHT22;25333;50.762;4.470;2023-06-22T00:15:45;19.70;99.90
38973;DHT22;25333;50.762;4.470;2023-06-22T00:18:10;19.70;99.90
38973;DHT22;25333;50.762;4.470;2023-06-22T00:20:37;19.70;99.90
38973;DHT22;25333;50.762;4.470;2023-06-22T00:23:04;19.60;99.90
38973;DHT22;25333;50.762;4.470;2023-06-22T00:25:37;19.60;99.90
38973;DHT22;25333;50.762;4.470;2023-06-22T00:28:05;19.50;99.90
38973;DHT22;25333;50.762;4.470;2023-06-22T00:30:32;19.50;99.90
38973;DHT22;25333;50.762;4.470;2023-06-22T00:32:58;19.50;99.90
38973;DHT22;25333;50.762;4.470;2023-06-22T00:35:24;19.50;99.90
38973;DHT22;25333;50.762;4.470;2023-06-22T00:37:57;19.50;99.90
38973;DHT22;25333;50.762;4.470;2023-06-22T00:40:29;19.40;99.90
38973;DHT22;25333;50.762;4.470;2023-06-22T00:42:56;19.50;99.90
38973;DHT22;25333;50.762;4.470;2023-06-22T00:45:22;19.50;99.90
38973;DHT22;25333;50.762;4.470;2023-06-22T00:47:53;19.60;99.90
38973;DHT22;25333;50.762;4.470;2023-06-22T00:50:21;19.60;99.90
38973;DHT22;25333;50.762;4.470;2023-06-22T00:52:58;19.60;99.90
38973;DHT22;25333;50.762;4.470;2023-06-22T00:55:25;19.60;99.90
38973;DHT22;25333;50.762;4.470;2023-06-22T00:57:52;19.60;99.90
38973;DHT22;25333;50.762;4.470;2023-06-22T01:00:22;19.60;99.90
38973;DHT22;25333;50.762;4.470;2023-06-22T01:02:53;19.60;99.90
38973;DHT22;25333;50.762;4.470;2023-06-22T01:05:20;19.60;99.90
38973;DHT22;25333;50.762;4.470;2023-06-22T01:13:01;19.70;99.90
38973;DHT22;25333;50.762;4.470;2023-06-22T01:15:31;19.70;99.90
38973;DHT22;25333;50.762;4.470;2023-06-22T01:17:59;19.60;99.90
38973;DHT22;25333;50.762;4.470;2023-06-22T01:20:28;19.60;99.90
38973;DHT22;25333;50.762;4.470;2023-06-22T01:23:11;19.50;99.90
38973;DHT22;25333;50.762;4.470;2023-06-22T01:25:51;19.50;99.90
38973;DHT22;25333;50.762;4.470;2023-06-22T01:28:40;19.50;99.90
38973;DHT22;25333;50.762;4.470;2023-06-22T01:31:08;19.40;99.90
38973;DHT22;25333;50.762;4.470;2023-06-22T01:33:39;19.30;99.90
38973;DHT22;25333;50.762;4.470;2023-06-22T01:36:06;19.30;99.90
38973;DHT22;25333;50.762;4.470;2023-06-22T01:38:33;19.30;99.90
38973;DHT22;25333;50.762;4.470;2023-06-22T01:41:00;19.20;99.90
38973;DHT22;25333;50.762;4.470;2023-06-22T01:43:27;19.20;99.90
38973;DHT22;25333;50.762;4.470;2023-06-22T01:45:54;19.20;99.90
38973;DHT22;25333;50.762;4.470;2023-06-22T01:48:21;19.10;99.90
38973;DHT22;25333;50.762;4.470;2023-06-22T01:50:47;19.00;99.90
38973;DHT22;25333;50.762;4.470;2023-06-22T01:53:13;19.00;99.90
38973;DHT22;25333;50.762;4.470;2023-06-22T01:55:38;19.00;99.90
38973;DHT22;25333;50.762;4.470;2023-06-22T01:58:04;18.90;99.90
38973;DHT22;25333;50.762;4.470;2023-06-22T02:00:33;18.80;99.90
38973;DHT22;25333;50.762;4.470;2023-06-22T02:03:08;18.80;99.90
38973;DHT22;25333;50.762;4.470;2023-06-22T02:05:52;18.70;99.90
38973;DHT22;25333;50.762;4.470;2023-06-22T02:08:29;18.70;99.90
38973;DHT22;25333;50.762;4.470;2023-06-22T02:10:56;18.70;99.90
38973;DHT22;25333;50.762;4.470;2023-06-22T02:13:24;18.70;99.90
38973;DHT22;25333;50.762;4.470;2023-06-22T02:15:50;18.70;99.90
38973;DHT22;25333;50.762;4.470;2023-06-22T02:18:16;18.70;99.90
38973;DHT22;25333;50.762;4.470;2023-06-22T02:20:42;18.70;99.90
38973;DHT22;25333;50.762;4.470;2023-06-22T02:23:08;18.70;99.90
38973;DHT22;25333;50.762;4.470;2023-06-22T02:25:34;18.70;99.90
38973;DHT22;25333;50.762;4.470;2023-06-22T02:27:59;18.60;99.90
38973;DHT22;25333;50.762;4.470;2023-06-22T02:30:25;18.50;99.90
38973;DHT22;25333;50.762;4.470;2023-06-22T02:32:51;18.50;99.90
38973;DHT22;25333;50.762;4.470;2023-06-22T02:35:27;18.50;99.90
38973;DHT22;25333;50.762;4.470;2023-06-22T02:38:00;18.50;99.90
38973;DHT22;25333;50.762;4.470;2023-06-22T02:40:26;18.50;99.90
38973;DHT22;25333;50.762;4.470;2023-06-22T02:42:51;18.50;99.90
38973;DHT22;25333;50.762;4.470;2023-06-22T02:45:17;18.50;99.90
38973;DHT22;25333;50.762;4.470;2023-06-22T02:47:43;18.50;99.90
38973;DHT22;25333;50.762;4.470;2023-06-22T02:50:09;18.40;99.90
38973;DHT22;25333;50.762;4.470;2023-06-22T02:52:35;18.40;99.90
38973;DHT22;25333;50.762;4.470;2023-06-22T02:55:01;18.40;99.90
38973;DHT22;25333;50.762;4.470;2023-06-22T02:57:26;18.40;99.90
38973;DHT22;25333;50.762;4.470;2023-06-22T02:59:52;18.40;99.90
38973;DHT22;25333;50.762;4.470;2023-06-22T03:02:18;18.40;99.90
38973;DHT22;25333;50.762;4.470;2023-06-22T03:04:46;18.30;99.90
38973;DHT22;25333;50.762;4.470;2023-06-22T03:07:15;18.30;99.90
38973;DHT22;25333;50.762;4.470;2023-06-22T03:09:40;18.30;99.90
38973;DHT22;25333;50.762;4.470;2023-06-22T03:12:08;18.30;99.90
38973;DHT22;25333;50.762;4.470;2023-06-22T03:14:34;18.30;99.90
38973;DHT22;25333;50.762;4.470;2023-06-22T03:16:59;18.40;99.90
38973;DHT22;25333;50.762;4.470;2023-06-22T03:19:29;18.40;99.90
38973;DHT22;25333;50.762;4.470;2023-06-22T03:21:57;18.40;99.90
38973;DHT22;25333;50.762;4.470;2023-06-22T03:24:23;18.40;99.90
38973;DHT22;25333;50.762;4.470;2023-06-22T03:26:48;18.50;99.90
38973;DHT22;25333;50.762;4.470;2023-06-22T03:29:14;18.50;99.90
38973;DHT22;25333;50.762;4.470;2023-06-22T03:31:41;18.40;99.90
38973;DHT22;25333;50.762;4.470;2023-06-22T03:34:06;18.40;99.90
38973;DHT22;25333;50.762;4.470;2023-06-22T03:36:32;18.40;99.90
38973;DHT22;25333;50.762;4.470;2023-06-22T03:38:57;18.40;99.90
38973;DHT22;25333;50.762;4.470;2023-06-22T03:41:23;18.40;99.90
38973;DHT22;25333;50.762;4.470;2023-06-22T03:43:49;18.50;99.90
38973;DHT22;25333;50.762;4.470;2023-06-22T03:46:14;18.50;99.90
38973;DHT22;25333;50.762;4.470;2023-06-22T03:48:40;18.60;99.90
38973;DHT22;25333;50.762;4.470;2023-06-22T03:51:06;18.60;99.90
38973;DHT22;25333;50.762;4.470;2023-06-22T03:53:31;18.70;99.90
38973;DHT22;25333;50.762;4.470;2023-06-22T03:55:57;18.70;99.90
38973;DHT22;25333;50.762;4.470;2023-06-22T03:58:23;18.80;99.90
38973;DHT22;25333;50.762;4.470;2023-06-22T04:00:52;18.70;99.90
38973;DHT22;25333;50.762;4.470;2023-06-22T04:03:18;18.60;99.90
38973;DHT22;25333;50.762;4.470;2023-06-22T04:05:45;18.60;99.90
38973;DHT22;25333;50.762;4.470;2023-06-22T04:08:12;18.60;99.90
38973;DHT22;25333;50.762;4.470;2023-06-22T04:10:38;18.50;99.90
38973;DHT22;25333;50.762;4.470;2023-06-22T04:13:03;18.40;99.90
38973;DHT22;25333;50.762;4.470;2023-06-22T04:15:29;18.30;99.90
38973;DHT22;25333;50.762;4.470;2023-06-22T04:17:55;18.30;99.90
38973;DHT22;25333;50.762;4.470;2023-06-22T04:20:22;18.30;99.90
38973;DHT22;25333;50.762;4.470;2023-06-22T04:22:47;18.30;99.90
38973;DHT22;25333;50.762;4.470;2023-06-22T04:25:17;18.30;99.90
38973;DHT22;25333;50.762;4.470;2023-06-22T04:27:45;18.30;99.90
38973;DHT22;25333;50.762;4.470;2023-06-22T04:30:26;18.20;99.90
38973;DHT22;25333;50.762;4.470;2023-06-22T04:33:23;18.20;99.90
38973;DHT22;25333;50.762;4.470;2023-06-22T04:39:28;18.30;99.90
38973;DHT22;25333;50.762;4.470;2023-06-22T04:42:09;18.40;99.90
38973;DHT22;25333;50.762;4.470;2023-06-22T04:45:07;18.40;99.90
38973;DHT22;25333;50.762;4.470;2023-06-22T04:51:41;18.40;99.90
38973;DHT22;25333;50.762;4.470;2023-06-22T04:54:08;18.50;99.90
38973;DHT22;25333;50.762;4.470;2023-06-22T04:56:39;18.50;99.90
38973;DHT22;25333;50.762;4.470;2023-06-22T04:59:08;18.50;99.90
38973;DHT22;25333;50.762;4.470;2023-06-22T05:01:46;18.50;99.90
38973;DHT22;25333;50.762;4.470;2023-06-22T05:04:34;18.50;99.90
38973;DHT22;25333;50.762;4.470;2023-06-22T05:07:34;18.50;99.90
38973;DHT22;25333;50.762;4.470;2023-06-22T05:10:05;18.50;99.90
38973;DHT22;25333;50.762;4.470;2023-06-22T05:12:33;18.60;99.90
38973;DHT22;25333;50.762;4.470;2023-06-22T05:15:00;18.50;99.90
38973;DHT22;25333;50.762;4.470;2023-06-22T05:17:26;18.60;99.90
38973;DHT22;25333;50.762;4.470;2023-06-22T05:19:52;18.60;99.90
38973;DHT22;25333;50.762;4.470;2023-06-22T05:22:18;18.60;99.90
38973;DHT22;25333;50.762;4.470;2023-06-22T05:24:44;18.70;99.90
38973;DHT22;25333;50.762;4.470;2023-06-22T05:27:10;18.70;99.90
38973;DHT22;25333;50.762;4.470;2023-06-22T05:29:36;18.70;99.90
38973;DHT22;25333;50.762;4.470;2023-06-22T05:32:03;18.70;99.90
38973;DHT22;25333;50.762;4.470;2023-06-22T05:34:29;18.70;99.90
38973;DHT22;25333;50.762;4.470;2023-06-22T05:36:54;18.60;99.90
38973;DHT22;25333;50.762;4.470;2023-06-22T05:39:20;18.70;99.90
38973;DHT22;25333;50.762;4.470;2023-06-22T05:41:46;18.80;99.90
38973;DHT22;25333;50.762;4.470;2023-06-22T05:44:12;18.80;99.90
38973;DHT22;25333;50.762;4.470;2023-06-22T05:46:42;18.80;99.90
38973;DHT22;25333;50.762;4.470;2023-06-22T05:49:12;18.70;99.90
38973;DHT22;25333;50.762;4.470;2023-06-22T05:51:40;18.70;99.90
38973;DHT22;25333;50.762;4.470;2023-06-22T05:54:06;18.80;99.90
38973;DHT22;25333;50.762;4.470;2023-06-22T05:56:33;18.80;99.90
38973;DHT22;25333;50.762;4.470;2023-06-22T05:58:59;18.90;99.90
38973;DHT22;25333;50.762;4.470;2023-06-22T06:01:24;18.90;99.90
38973;DHT22;25333;50.762;4.470;2023-06-22T06:03:51;18.90;99.90
38973;DHT22;25333;50.762;4.470;2023-06-22T06:06:18;19.00;99.90
38973;DHT22;25333;50.762;4.470;2023-06-22T06:08:46;19.10;99.90
38973;DHT22;25333;50.762;4.470;2023-06-22T06:11:12;19.10;99.90
38973;DHT22;25333;50.762;4.470;2023-06-22T06:13:38;19.20;99.90
38973;DHT22;25333;50.762;4.470;2023-06-22T06:16:03;19.20;99.90
38973;DHT22;25333;50.762;4.470;2023-06-22T06:18:29;19.20;99.90
38973;DHT22;25333;50.762;4.470;2023-06-22T06:20:54;19.20;99.90
38973;DHT22;25333;50.762;4.470;2023-06-22T06:23:20;19.30;99.90
38973;DHT22;25333;50.762;4.470;2023-06-22T06:25:46;19.20;99.90
38973;DHT22;25333;50.762;4.470;2023-06-22T06:28:11;19.10;99.90
38973;DHT22;25333;50.762;4.470;2023-06-22T06:30:37;19.20;99.90
38973;DHT22;25333;50.762;4.470;2023-06-22T06:33:03;19.20;99.90
38973;DHT22;25333;50.762;4.470;2023-06-22T06:35:34;19.20;99.90
38973;DHT22;25333;50.762;4.470;2023-06-22T06:38:00;19.20;99.90
38973;DHT22;25333;50.762;4.470;2023-06-22T06:40:25;19.20;99.90
38973;DHT22;25333;50.762;4.470;2023-06-22T06:42:51;19.30;99.90
38973;DHT22;25333;50.762;4.470;2023-06-22T06:45:22;19.30;99.90
38973;DHT22;25333;50.762;4.470;2023-06-22T06:47:49;19.30;99.90
38973;DHT22;25333;50.762;4.470;2023-06-22T06:50:15;19.30;99.90
38973;DHT22;25333;50.762;4.470;2023-06-22T06:52:41;19.40;99.90
38973;DHT22;25333;50.762;4.470;2023-06-22T06:55:07;19.40;99.90
38973;DHT22;25333;50.762;4.470;2023-06-22T06:57:37;19.50;99.90
38973;DHT22;25333;50.762;4.470;2023-06-22T07:00:05;19.60;99.90
38973;DHT22;25333;50.762;4.470;2023-06-22T07:02:35;19.60;99.90
38973;DHT22;25333;50.762;4.470;2023-06-22T07:05:00;19.70;99.90
38973;DHT22;25333;50.762;4.470;2023-06-22T07:07:30;19.80;99.90
38973;DHT22;25333;50.762;4.470;2023-06-22T07:09:55;19.70;99.90
38973;DHT22;25333;50.762;4.470;2023-06-22T07:12:21;19.70;99.90
38973;DHT22;25333;50.762;4.470;2023-06-22T07:14:47;19.70;99.90
38973;DHT22;25333;50.762;4.470;2023-06-22T07:17:12;19.80;99.90
38973;DHT22;25333;50.762;4.470;2023-06-22T07:19:38;19.80;99.90
38973;DHT22;25333;50.762;4.470;2023-06-22T07:22:04;19.90;99.90
38973;DHT22;25333;50.762;4.470;2023-06-22T07:24:30;19.80;99.90
38973;DHT22;25333;50.762;4.470;2023-06-22T07:26:55;19.80;99.90
38973;DHT22;25333;50.762;4.470;2023-06-22T07:29:25;19.90;99.90
38973;DHT22;25333;50.762;4.470;2023-06-22T07:31:52;20.00;99.90
38973;DHT22;25333;50.762;4.470;2023-06-22T07:34:18;19.90;99.90
38973;DHT22;25333;50.762;4.470;2023-06-22T07:36:44;19.90;99.90
38973;DHT22;25333;50.762;4.470;2023-06-22T07:39:10;19.80;99.90
38973;DHT22;25333;50.762;4.470;2023-06-22T07:41:38;19.80;99.90
38973;DHT22;25333;50.762;4.470;2023-06-22T07:44:04;19.70;99.90
38973;DHT22;25333;50.762;4.470;2023-06-22T07:46:30;19.70;99.90
38973;DHT22;25333;50.762;4.470;2023-06-22T07:48:56;19.60;99.90
38973;DHT22;25333;50.762;4.470;2023-06-22T07:51:22;19.70;99.90
38973;DHT22;25333;50.762;4.470;2023-06-22T07:53:50;19.80;99.90
38973;DHT22;25333;50.762;4.470;2023-06-22T07:56:16;19.70;99.90
38973;DHT22;25333;50.762;4.470;2023-06-22T07:58:45;19.60;99.90
38973;DHT22;25333;50.762;4.470;2023-06-22T08:01:12;19.60;99.90
38973;DHT22;25333;50.762;4.470;2023-06-22T08:03:37;19.60;99.90
38973;DHT22;25333;50.762;4.470;2023-06-22T08:06:04;19.60;99.90
38973;DHT22;25333;50.762;4.470;2023-06-22T08:08:31;19.60;99.90
38973;DHT22;25333;50.762;4.470;2023-06-22T08:10:56;19.40;99.90
38973;DHT22;25333;50.762;4.470;2023-06-22T08:13:22;19.40;99.90
38973;DHT22;25333;50.762;4.470;2023-06-22T08:15:48;19.30;99.90
38973;DHT22;25333;50.762;4.470;2023-06-22T08:18:13;19.30;99.90
38973;DHT22;25333;50.762;4.470;2023-06-22T08:20:40;19.40;99.90
38973;DHT22;25333;50.762;4.470;2023-06-22T08:23:05;19.40;99.90
38973;DHT22;25333;50.762;4.470;2023-06-22T08:25:34;19.40;99.90
38973;DHT22;25333;50.762;4.470;2023-06-22T08:28:01;19.40;99.90
38973;DHT22;25333;50.762;4.470;2023-06-22T08:30:27;19.40;99.90
38973;DHT22;25333;50.762;4.470;2023-06-22T08:32:53;19.50;99.90
38973;DHT22;25333;50.762;4.470;2023-06-22T08:35:20;19.50;99.90
38973;DHT22;25333;50.762;4.470;2023-06-22T08:37:45;19.50;99.90
38973;DHT22;25333;50.762;4.470;2023-06-22T08:40:18;19.50;99.90
38973;DHT22;25333;50.762;4.470;2023-06-22T08:42:45;19.50;99.90
38973;DHT22;25333;50.762;4.470;2023-06-22T08:45:12;19.50;99.90
38973;DHT22;25333;50.762;4.470;2023-06-22T08:47:38;19.60;99.90
38973;DHT22;25333;50.762;4.470;2023-06-22T08:50:04;19.60;99.90
38973;DHT22;25333;50.762;4.470;2023-06-22T08:52:31;19.60;99.90
38973;DHT22;25333;50.762;4.470;2023-06-22T08:54:56;19.60;99.90
38973;DHT22;25333;50.762;4.470;2023-06-22T08:57:23;19.70;99.90
38973;DHT22;25333;50.762;4.470;2023-06-22T08:59:49;19.70;99.90
38973;DHT22;25333;50.762;4.470;2023-06-22T09:02:17;19.70;99.90
38973;DHT22;25333;50.762;4.470;2023-06-22T09:04:43;19.70;99.90
38973;DHT22;25333;50.762;4.470;2023-06-22T09:07:08;19.80;99.90
38973;DHT22;25333;50.762;4.470;2023-06-22T09:09:34;19.80;99.90
38973;DHT22;25333;50.762;4.470;2023-06-22T09:12:00;19.80;99.90
38973;DHT22;25333;50.762;4.470;2023-06-22T09:14:25;19.80;99.90
38973;DHT22;25333;50.762;4.470;2023-06-22T09:16:51;19.80;99.90
38973;DHT22;25333;50.762;4.470;2023-06-22T09:19:16;19.80;99.90
38973;DHT22;25333;50.762;4.470;2023-06-22T09:21:42;19.90;99.90
38973;DHT22;25333;50.762;4.470;2023-06-22T09:24:08;19.90;99.90
38973;DHT22;25333;50.762;4.470;2023-06-22T09:26:33;19.90;99.90
38973;DHT22;25333;50.762;4.470;2023-06-22T09:28:59;19.90;99.90
38973;DHT22;25333;50.762;4.470;2023-06-22T09:31:24;19.90;99.90
38973;DHT22;25333;50.762;4.470;2023-06-22T09:33:54;19.80;99.90
38973;DHT22;25333;50.762;4.470;2023-06-22T09:36:20;19.70;99.90
38973;DHT22;25333;50.762;4.470;2023-06-22T09:38:47;19.70;99.90
38973;DHT22;25333;50.762;4.470;2023-06-22T09:41:13;19.60;99.90
38973;DHT22;25333;50.762;4.470;2023-06-22T09:43:38;19.50;99.90
38973;DHT22;25333;50.762;4.470;2023-06-22T09:46:04;19.50;99.90
38973;DHT22;25333;50.762;4.470;2023-06-22T09:48:29;19.50;99.90
38973;DHT22;25333;50.762;4.470;2023-06-22T09:50:56;19.50;99.90
38973;DHT22;25333;50.762;4.470;2023-06-22T09:53:21;19.40;99.90
38973;DHT22;25333;50.762;4.470;2023-06-22T09:55:47;19.40;99.90
38973;DHT22;25333;50.762;4.470;2023-06-22T09:58:13;19.20;99.90
38973;DHT22;25333;50.762;4.470;2023-06-22T10:00:38;19.00;99.90
38973;DHT22;25333;50.762;4.470;2023-06-22T10:03:04;19.00;99.90
38973;DHT22;25333;50.762;4.470;2023-06-22T10:05:30;19.00;99.90
38973;DHT22;25333;50.762;4.470;2023-06-22T10:07:55;19.00;99.90
38973;DHT22;25333;50.762;4.470;2023-06-22T10:10:21;19.10;99.90
38973;DHT22;25333;50.762;4.470;2023-06-22T10:12:48;19.10;99.90
38973;DHT22;25333;50.762;4.470;2023-06-22T10:15:19;19.10;99.90
38973;DHT22;25333;50.762;4.470;2023-06-22T10:17:46;18.90;99.90
38973;DHT22;25333;50.762;4.470;2023-06-22T10:20:12;18.90;99.90
38973;DHT22;25333;50.762;4.470;2023-06-22T10:22:43;18.90;99.90
38973;DHT22;25333;50.762;4.470;2023-06-22T10:25:11;18.80;99.90
38973;DHT22;25333;50.762;4.470;2023-06-22T10:27:37;18.70;99.90
38973;DHT22;25333;50.762;4.470;2023-06-22T10:30:10;18.70;99.90
38973;DHT22;25333;50.762;4.470;2023-06-22T10:32:38;18.70;99.90
38973;DHT22;25333;50.762;4.470;2023-06-22T10:35:04;18.70;99.90
38973;DHT22;25333;50.762;4.470;2023-06-22T10:37:30;18.70;99.90
38973;DHT22;25333;50.762;4.470;2023-06-22T10:39:56;18.60;99.90
38973;DHT22;25333;50.762;4.470;2023-06-22T10:42:21;18.70;99.90
38973;DHT22;25333;50.762;4.470;2023-06-22T10:44:47;18.60;99.90
38973;DHT22;25333;50.762;4.470;2023-06-22T10:47:13;18.50;99.90
38973;DHT22;25333;50.762;4.470;2023-06-22T10:49:39;18.40;99.90
38973;DHT22;25333;50.762;4.470;2023-06-22T10:52:08;18.30;99.90
38973;DHT22;25333;50.762;4.470;2023-06-22T10:54:35;18.30;99.90
38973;DHT22;25333;50.762;4.470;2023-06-22T10:57:01;18.30;99.90
38973;DHT22;25333;50.762;4.470;2023-06-22T10:59:27;18.30;99.90
38973;DHT22;25333;50.762;4.470;2023-06-22T11:01:55;18.40;99.90
38973;DHT22;25333;50.762;4.470;2023-06-22T11:04:20;18.50;99.90
38973;DHT22;25333;50.762;4.470;2023-06-22T11:06:47;18.50;99.90
38973;DHT22;25333;50.762;4.470;2023-06-22T11:09:12;18.50;99.90
38973;DHT22;25333;50.762;4.470;2023-06-22T11:11:43;18.60;99.90
38973;DHT22;25333;50.762;4.470;2023-06-22T11:14:09;18.60;99.90
38973;DHT22;25333;50.762;4.470;2023-06-22T11:16:35;18.70;99.90
38973;DHT22;25333;50.762;4.470;2023-06-22T11:19:00;18.60;99.90
38973;DHT22;25333;50.762;4.470;2023-06-22T11:21:26;18.60;99.90
38973;DHT22;25333;50.762;4.470;2023-06-22T11:23:52;18.60;99.90
38973;DHT22;25333;50.762;4.470;2023-06-22T11:26:17;18.60;99.90
38973;DHT22;25333;50.762;4.470;2023-06-22T11:28:43;18.60;99.90
38973;DHT22;25333;50.762;4.470;2023-06-22T11:31:08;18.60;99.90
38973;DHT22;25333;50.762;4.470;2023-06-22T11:33:34;18.50;99.90
38973;DHT22;25333;50.762;4.470;2023-06-22T11:36:00;18.50;99.90
38973;DHT22;25333;50.762;4.470;2023-06-22T11:38:25;18.60;99.90
38973;DHT22;25333;50.762;4.470;2023-06-22T11:40:51;18.70;99.90
38973;DHT22;25333;50.762;4.470;2023-06-22T11:43:17;18.70;99.90
38973;DHT22;25333;50.762;4.470;2023-06-22T11:45:42;18.70;99.90
38973;DHT22;25333;50.762;4.470;2023-06-22T11:48:08;18.80;99.90
38973;DHT22;25333;50.762;4.470;2023-06-22T11:50:33;18.70;99.90
38973;DHT22;25333;50.762;4.470;2023-06-22T11:53:02;18.70;99.90
38973;DHT22;25333;50.762;4.470;2023-06-22T11:55:28;18.80;99.90
38973;DHT22;25333;50.762;4.470;2023-06-22T11:57:57;18.80;99.90
38973;DHT22;25333;50.762;4.470;2023-06-22T12:00:29;18.80;99.90
38973;DHT22;25333;50.762;4.470;2023-06-22T12:02:55;18.80;99.90
38973;DHT22;25333;50.762;4.470;2023-06-22T12:05:22;18.80;99.90
38973;DHT22;25333;50.762;4.470;2023-06-22T12:07:48;18.90;99.90
38973;DHT22;25333;50.762;4.470;2023-06-22T12:10:14;18.80;99.90
38973;DHT22;25333;50.762;4.470;2023-06-22T12:12:40;18.80;99.90
38973;DHT22;25333;50.762;4.470;2023-06-22T12:15:07;18.80;99.90
38973;DHT22;25333;50.762;4.470;2023-06-22T12:17:34;18.80;99.90
38973;DHT22;25333;50.762;4.470;2023-06-22T12:20:00;18.80;99.90
38973;DHT22;25333;50.762;4.470;2023-06-22T12:22:25;18.80;99.90
38973;DHT22;25333;50.762;4.470;2023-06-22T12:24:51;18.80;99.90
38973;DHT22;25333;50.762;4.470;2023-06-22T12:27:17;18.80;99.90
38973;DHT22;25333;50.762;4.470;2023-06-22T12:29:45;18.70;99.90
38973;DHT22;25333;50.762;4.470;2023-06-22T12:32:11;18.70;99.90
38973;DHT22;25333;50.762;4.470;2023-06-22T12:34:41;18.70;99.90
38973;DHT22;25333;50.762;4.470;2023-06-22T12:37:07;18.70;99.90
38973;DHT22;25333;50.762;4.470;2023-06-22T12:39:33;18.70;99.90
38973;DHT22;25333;50.762;4.470;2023-06-22T12:41:58;18.70;99.90
38973;DHT22;25333;50.762;4.470;2023-06-22T12:44:24;18.60;99.90
38973;DHT22;25333;50.762;4.470;2023-06-22T12:46:50;18.60;99.90
38973;DHT22;25333;50.762;4.470;2023-06-22T12:49:15;18.60;99.90
38973;DHT22;25333;50.762;4.470;2023-06-22T12:51:41;18.50;99.90
38973;DHT22;25333;50.762;4.470;2023-06-22T12:54:07;18.50;99.90
38973;DHT22;25333;50.762;4.470;2023-06-22T12:56:33;18.40;99.90
38973;DHT22;25333;50.762;4.470;2023-06-22T12:58:59;18.40;99.90
38973;DHT22;25333;50.762;4.470;2023-06-22T13:01:30;18.30;99.90
38973;DHT22;25333;50.762;4.470;2023-06-22T13:03:57;18.30;99.90
38973;DHT22;25333;50.762;4.470;2023-06-22T13:06:23;18.30;99.90
38973;DHT22;25333;50.762;4.470;2023-06-22T13:08:49;18.30;99.90
38973;DHT22;25333;50.762;4.470;2023-06-22T13:11:14;18.30;99.90
38973;DHT22;25333;50.762;4.470;2023-06-22T13:13:40;18.30;99.90
38973;DHT22;25333;50.762;4.470;2023-06-22T13:16:07;18.30;99.90
38973;DHT22;25333;50.762;4.470;2023-06-22T13:18:32;18.30;99.90
38973;DHT22;25333;50.762;4.470;2023-06-22T13:20:59;18.30;99.90
38973;DHT22;25333;50.762;4.470;2023-06-22T13:23:25;18.30;99.90
38973;DHT22;25333;50.762;4.470;2023-06-22T13:25:51;18.30;99.90
38973;DHT22;25333;50.762;4.470;2023-06-22T13:28:17;18.40;99.90
38973;DHT22;25333;50.762;4.470;2023-06-22T13:30:43;18.40;99.90
38973;DHT22;25333;50.762;4.470;2023-06-22T13:33:11;18.50;99.90
38973;DHT22;25333;50.762;4.470;2023-06-22T13:35:37;18.40;99.90
38973;DHT22;25333;50.762;4.470;2023-06-22T13:38:03;18.40;99.90
38973;DHT22;25333;50.762;4.470;2023-06-22T13:40:29;18.40;99.90
38973;DHT22;25333;50.762;4.470;2023-06-22T13:42:55;18.40;99.90
38973;DHT22;25333;50.762;4.470;2023-06-22T13:45:21;18.40;99.90
38973;DHT22;25333;50.762;4.470;2023-06-22T13:47:46;18.30;99.90
38973;DHT22;25333;50.762;4.470;2023-06-22T13:50:12;18.40;99.90
38973;DHT22;25333;50.762;4.470;2023-06-22T13:52:39;18.40;99.90
38973;DHT22;25333;50.762;4.470;2023-06-22T13:55:05;18.40;99.90
38973;DHT22;25333;50.762;4.470;2023-06-22T13:57:32;18.50;99.90
38973;DHT22;25333;50.762;4.470;2023-06-22T13:59:58;18.50;99.90
38973;DHT22;25333;50.762;4.470;2023-06-22T14:02:23;18.50;99.90
38973;DHT22;25333;50.762;4.470;2023-06-22T14:04:49;18.40;99.90
38973;DHT22;25333;50.762;4.470;2023-06-22T14:07:14;18.40;99.90
38973;DHT22;25333;50.762;4.470;2023-06-22T14:09:40;18.40;99.90
38973;DHT22;25333;50.762;4.470;2023-06-22T14:12:06;18.40;99.90
38973;DHT22;25333;50.762;4.470;2023-06-22T14:14:32;18.40;99.90
38973;DHT22;25333;50.762;4.470;2023-06-22T14:16:59;18.40;99.90
38973;DHT22;25333;50.762;4.470;2023-06-22T14:19:24;18.40;99.90
38973;DHT22;25333;50.762;4.470;2023-06-22T14:21:50;18.40;99.90
38973;DHT22;25333;50.762;4.470;2023-06-22T14:24:15;18.40;99.90
38973;DHT22;25333;50.762;4.470;2023-06-22T14:26:41;18.50;99.90
38973;DHT22;25333;50.762;4.470;2023-06-22T14:29:07;18.40;99.90
38973;DHT22;25333;50.762;4.470;2023-06-22T14:31:32;18.40;99.90
38973;DHT22;25333;50.762;4.470;2023-06-22T14:33:58;18.40;99.90
38973;DHT22;25333;50.762;4.470;2023-06-22T14:36:23;18.40;99.90
38973;DHT22;25333;50.762;4.470;2023-06-22T14:38:49;18.40;99.90
38973;DHT22;25333;50.762;4.470;2023-06-22T14:41:15;18.40;99.90
38973;DHT22;25333;50.762;4.470;2023-06-22T14:43:46;18.40;99.90
38973;DHT22;25333;50.762;4.470;2023-06-22T14:46:13;18.50;99.90
38973;DHT22;25333;50.762;4.470;2023-06-22T14:48:39;18.40;99.90
38973;DHT22;25333;50.762;4.470;2023-06-22T14:51:05;18.40;99.90
38973;DHT22;25333;50.762;4.470;2023-06-22T14:53:31;18.40;99.90
38973;DHT22;25333;50.762;4.470;2023-06-22T14:55:56;18.40;99.90
38973;DHT22;25333;50.762;4.470;2023-06-22T14:58:22;18.40;99.90
38973;DHT22;25333;50.762;4.470;2023-06-22T15:00:47;18.40;99.90
38973;DHT22;25333;50.762;4.470;2023-06-22T15:03:13;18.40;99.90
38973;DHT22;25333;50.762;4.470;2023-06-22T15:05:43;18.30;99.90
38973;DHT22;25333;50.762;4.470;2023-06-22T15:08:09;18.30;99.90
38973;DHT22;25333;50.762;4.470;2023-06-22T15:10:34;18.20;99.90
38973;DHT22;25333;50.762;4.470;2023-06-22T15:13:00;18.30;99.90
38973;DHT22;25333;50.762;4.470;2023-06-22T15:15:26;18.30;99.90
38973;DHT22;25333;50.762;4.470;2023-06-22T15:17:52;18.40;99.90
38973;DHT22;25333;50.762;4.470;2023-06-22T15:20:18;18.30;99.90
38973;DHT22;25333;50.762;4.470;2023-06-22T15:22:43;18.30;99.90
38973;DHT22;25333;50.762;4.470;2023-06-22T15:25:16;18.40;99.90
38973;DHT22;25333;50.762;4.470;2023-06-22T15:27:42;18.40;99.90
38973;DHT22;25333;50.762;4.470;2023-06-22T15:30:08;18.40;99.90
38973;DHT22;25333;50.762;4.470;2023-06-22T15:32:35;18.30;99.90
38973;DHT22;25333;50.762;4.470;2023-06-22T15:35:00;18.40;99.90
38973;DHT22;25333;50.762;4.470;2023-06-22T15:37:26;18.40;99.90
38973;DHT22;25333;50.762;4.470;2023-06-22T15:39:52;18.50;99.90
38973;DHT22;25333;50.762;4.470;2023-06-22T15:42:17;18.50;99.90